createdAt,value
2023-06-05T00:01:08.208Z,47.43
2023-06-05T00:04:04.091Z,47.39
2023-06-05T00:06:58.633Z,47.27
2023-06-05T00:09:52.977Z,47.33
2023-06-05T00:12:47.371Z,47.48
2023-06-05T00:15:41.596Z,47.33
2023-06-05T00:18:36.232Z,47.43
2023-06-05T00:21:30.559Z,47.49
2023-06-05T00:24:24.595Z,47.44
2023-06-05T00:27:18.896Z,47.47
2023-06-05T00:30:15.233Z,47.56
2023-06-05T00:33:09.553Z,47.57
2023-06-05T00:36:03.698Z,47.55
2023-06-05T00:38:57.859Z,47.57
2023-06-05T00:41:52.067Z,47.58
2023-06-05T00:44:47.343Z,47.55
2023-06-05T00:47:42.324Z,47.71
2023-06-05T00:50:38.023Z,47.70
2023-06-05T00:53:35.176Z,47.72
2023-06-05T00:56:29.254Z,47.80
2023-06-05T00:59:24.322Z,47.77
2023-06-05T01:02:18.662Z,47.76
2023-06-05T01:05:12.832Z,49.19
2023-06-05T01:08:10.213Z,49.06
2023-06-05T01:11:07.494Z,48.88
2023-06-05T01:14:23.456Z,48.87
2023-06-05T01:17:19.771Z,49.21
2023-06-05T01:20:15.151Z,51.22
2023-06-05T01:23:09.944Z,50.33
2023-06-05T01:26:10.236Z,48.72
2023-06-05T01:29:07.463Z,48.58
2023-06-05T01:32:07.695Z,48.67
2023-06-05T01:35:02.398Z,48.36
2023-06-05T01:37:58.473Z,48.39
2023-06-05T01:40:53.947Z,48.21
2023-06-05T01:43:49.787Z,48.27
2023-06-05T01:46:43.900Z,48.29
2023-06-05T01:49:38.017Z,48.32
2023-06-05T01:52:32.134Z,48.28
2023-06-05T01:55:28.146Z,48.20
2023-06-05T01:58:23.401Z,48.24
2023-06-05T02:01:19.183Z,48.17
2023-06-05T02:04:19.879Z,48.12
2023-06-05T02:07:14.035Z,48.13
2023-06-05T02:10:09.286Z,48.05
2023-06-05T02:13:04.058Z,48.07
2023-06-05T02:15:58.468Z,48.22
2023-06-05T02:18:52.323Z,48.13
2023-06-05T02:21:46.363Z,48.17
2023-06-05T02:24:40.173Z,48.08
2023-06-05T02:27:34.182Z,48.07
2023-06-05T02:30:28.147Z,48.02
2023-06-05T02:33:22.426Z,48.07
2023-06-05T02:36:16.719Z,48.08
2023-06-05T02:39:11.140Z,48.05
2023-06-05T02:42:05.855Z,48.05
2023-06-05T02:44:59.828Z,48.05
2023-06-05T02:47:55.021Z,48.08
2023-06-05T02:50:49.065Z,48.15
2023-06-05T02:53:43.335Z,48.06
2023-06-05T02:56:38.394Z,48.14
2023-06-05T02:59:33.056Z,48.06
2023-06-05T03:02:28.465Z,48.21
2023-06-05T03:05:25.385Z,48.13
2023-06-05T03:08:19.467Z,48.19
2023-06-05T03:11:14.168Z,48.26
2023-06-05T03:14:08.116Z,48.23
2023-06-05T03:17:02.110Z,48.27
2023-06-05T03:19:56.236Z,48.28
2023-06-05T03:22:50.469Z,48.34
2023-06-05T03:25:44.435Z,48.32
2023-06-05T03:28:38.970Z,48.30
2023-06-05T03:31:33.080Z,48.22
2023-06-05T03:34:27.039Z,48.18
2023-06-05T03:37:21.080Z,48.32
2023-06-05T03:40:16.847Z,48.17
2023-06-05T03:43:11.057Z,48.13
2023-06-05T03:46:05.448Z,48.38
2023-06-05T03:49:00.447Z,48.35
2023-06-05T03:51:59.323Z,48.38
2023-06-05T03:54:54.594Z,48.38
2023-06-05T03:57:49.048Z,48.39
2023-06-05T04:00:43.569Z,48.51
2023-06-05T04:03:38.480Z,48.58
2023-06-05T04:06:34.574Z,48.74
2023-06-05T04:09:28.706Z,48.78
2023-06-05T04:12:23.015Z,48.67
2023-06-05T04:15:17.135Z,48.59
2023-06-05T04:18:11.244Z,48.76
2023-06-05T04:21:05.348Z,49.31
2023-06-05T04:23:59.539Z,49.31
2023-06-05T04:26:54.198Z,48.93
2023-06-05T04:29:51.254Z,48.89
2023-06-05T04:32:55.560Z,48.98
2023-06-05T04:35:50.639Z,49.43
2023-06-05T04:38:45.000Z,49.65
2023-06-05T04:41:45.869Z,49.71
2023-06-05T04:44:39.861Z,49.53
2023-06-05T04:47:34.933Z,49.38
2023-06-05T04:50:31.181Z,49.24
2023-06-05T04:53:26.065Z,49.08
2023-06-05T04:56:20.327Z,48.93
2023-06-05T04:59:14.238Z,48.78
2023-06-05T05:02:08.525Z,48.79
2023-06-05T05:05:02.924Z,48.82
2023-06-05T05:10:51.105Z,48.79
2023-06-05T05:13:45.578Z,48.88
2023-06-05T05:16:39.548Z,49.04
2023-06-05T05:19:33.826Z,49.08
2023-06-05T05:22:27.950Z,49.43
2023-06-05T05:25:07.880Z,49.19
2023-06-05T05:28:02.216Z,49.24
2023-06-05T05:30:58.729Z,49.42
2023-06-05T05:33:53.624Z,49.19
2023-06-05T05:36:47.797Z,48.89
2023-06-05T05:39:41.736Z,48.47
2023-06-05T05:42:36.260Z,48.05
2023-06-05T05:51:13.909Z,49.02
2023-06-05T05:54:08.376Z,48.47
2023-06-05T05:57:02.627Z,48.64
2023-06-05T05:59:56.503Z,48.42
2023-06-05T06:02:50.414Z,48.11
2023-06-05T06:05:45.824Z,47.74
2023-06-05T06:08:40.140Z,47.49
2023-06-05T06:11:35.671Z,47.17
2023-06-05T06:14:29.619Z,47.24
2023-06-05T06:17:23.677Z,47.35
2023-06-05T06:20:18.252Z,47.38
2023-06-05T06:23:12.564Z,47.20
2023-06-05T06:26:07.598Z,46.97
2023-06-05T06:29:03.063Z,46.91
2023-06-05T06:31:57.744Z,46.74
2023-06-05T06:34:52.298Z,46.89
2023-06-05T06:37:46.564Z,46.67
2023-06-05T06:40:40.823Z,46.67
2023-06-05T06:43:34.881Z,46.71
2023-06-05T06:46:28.954Z,46.96
2023-06-05T06:49:23.049Z,46.90
2023-06-05T06:52:17.770Z,46.65
2023-06-05T06:55:13.076Z,46.57
2023-06-05T06:57:57.862Z,46.42
2023-06-05T07:00:52.275Z,46.41
2023-06-05T07:03:46.553Z,46.24
2023-06-05T07:06:40.787Z,46.12
2023-06-05T07:09:34.674Z,46.14
2023-06-05T07:12:28.605Z,45.71
2023-06-05T07:15:22.716Z,45.93
2023-06-05T07:18:17.336Z,45.71
2023-06-05T07:21:11.672Z,45.89
2023-06-05T07:24:06.169Z,46.04
2023-06-05T07:27:03.948Z,46.02
2023-06-05T07:29:58.826Z,45.97
2023-06-05T07:32:53.028Z,46.43
2023-06-05T07:35:49.618Z,46.37
2023-06-05T07:38:43.786Z,46.49
2023-06-05T07:41:37.929Z,46.29
2023-06-05T07:44:32.189Z,45.93
2023-06-05T07:47:27.446Z,46.08
2023-06-05T07:50:22.563Z,45.88
2023-06-05T07:53:17.528Z,46.50
2023-06-05T07:56:12.964Z,47.89
2023-06-05T07:59:08.237Z,48.65
2023-06-05T08:02:02.394Z,48.38
2023-06-05T08:04:56.462Z,48.48
2023-06-05T08:07:50.362Z,46.75
2023-06-05T08:10:44.404Z,45.90
2023-06-05T08:13:40.489Z,43.45
2023-06-05T08:16:35.137Z,43.46
2023-06-05T08:19:28.937Z,43.04
2023-06-05T08:22:23.806Z,43.12
2023-06-05T08:25:17.920Z,42.94
2023-06-05T08:28:12.039Z,42.27
2023-06-05T08:31:07.134Z,42.20
2023-06-05T08:34:01.127Z,42.28
2023-06-05T08:36:59.325Z,42.55
2023-06-05T08:39:53.707Z,42.32
2023-06-05T08:42:47.623Z,42.62
2023-06-05T08:45:41.532Z,42.93
2023-06-05T08:48:39.565Z,42.97
2023-06-05T08:51:33.593Z,43.36
2023-06-05T08:54:28.377Z,43.02
2023-06-05T08:57:22.564Z,43.29
2023-06-05T09:00:18.485Z,43.42
2023-06-05T09:03:16.249Z,43.66
2023-06-05T09:06:11.765Z,43.66
2023-06-05T09:09:06.982Z,43.90
2023-06-05T09:12:13.014Z,44.00
2023-06-05T09:15:25.144Z,43.94
2023-06-05T09:18:19.328Z,43.28
2023-06-05T09:21:18.524Z,42.84
2023-06-05T09:24:21.218Z,43.77
2023-06-05T09:27:19.964Z,43.58
2023-06-05T09:30:15.892Z,43.39
2023-06-05T09:33:16.375Z,43.19
2023-06-05T09:36:13.715Z,42.73
2023-06-05T09:39:19.607Z,42.55
2023-06-05T09:42:13.984Z,42.37
2023-06-05T09:45:09.912Z,42.57
2023-06-05T09:48:17.062Z,43.19
2023-06-05T09:51:16.898Z,42.75
2023-06-05T09:54:13.068Z,43.27
2023-06-05T09:57:10.684Z,42.58
2023-06-05T10:00:07.961Z,43.26
2023-06-05T10:03:03.371Z,43.27
2023-06-05T10:06:06.440Z,43.24
2023-06-05T10:09:01.542Z,43.25
2023-06-05T10:11:56.844Z,42.92
2023-06-05T10:14:58.295Z,42.67
2023-06-05T10:17:53.086Z,42.70
2023-06-05T10:20:48.868Z,42.60
2023-06-05T10:23:44.412Z,43.39
2023-06-05T10:27:27.362Z,43.15
2023-06-05T10:30:58.977Z,43.33
2023-06-05T10:34:11.085Z,43.46
2023-06-05T10:37:53.892Z,43.13
2023-06-05T10:40:50.373Z,43.71
2023-06-05T10:43:55.843Z,43.54
2023-06-05T10:46:50.050Z,43.35
2023-06-05T10:50:21.245Z,43.15
2023-06-05T10:53:46.995Z,43.58
2023-06-05T10:57:03.076Z,42.99
2023-06-05T11:00:12.470Z,42.87
2023-06-05T11:03:08.428Z,42.75
2023-06-05T11:09:15.858Z,42.82
2023-06-05T11:12:10.859Z,43.05
2023-06-05T11:15:05.641Z,42.74
2023-06-05T11:18:20.377Z,42.79
2023-06-05T11:21:14.775Z,42.53
2023-06-05T11:24:21.718Z,43.14
2023-06-05T11:27:48.761Z,43.17
2023-06-05T11:30:49.147Z,43.04
2023-06-05T11:33:43.822Z,42.96
2023-06-05T11:36:37.732Z,42.82
2023-06-05T11:39:45.961Z,42.77
2023-06-05T11:42:41.058Z,42.84
2023-06-05T11:45:36.992Z,42.73
2023-06-05T11:48:32.026Z,42.47
2023-06-05T11:51:26.240Z,42.54
2023-06-05T11:54:33.078Z,42.53
2023-06-05T11:57:39.524Z,42.64
2023-06-05T12:00:40.866Z,42.47
2023-06-05T12:03:40.897Z,42.54
2023-06-05T12:06:35.407Z,42.34
2023-06-05T12:09:29.889Z,42.24
2023-06-05T12:12:23.750Z,42.22
2023-06-05T12:15:22.710Z,42.31
2023-06-05T12:18:17.776Z,42.51
2023-06-05T12:21:32.243Z,42.37
2023-06-05T12:24:30.499Z,42.44
2023-06-05T12:27:35.179Z,42.51
2023-06-05T12:30:42.938Z,42.46
2023-06-05T12:33:49.732Z,43.05
2023-06-05T12:36:48.621Z,43.89
2023-06-05T12:39:42.505Z,43.79
2023-06-05T12:42:39.920Z,44.25
2023-06-05T12:45:34.565Z,44.84
2023-06-05T12:48:29.080Z,45.00
2023-06-05T12:51:23.087Z,44.58
2023-06-05T12:54:36.886Z,44.75
2023-06-05T12:57:30.667Z,44.33
2023-06-05T13:00:25.516Z,44.64
2023-06-05T13:03:19.921Z,44.54
2023-06-05T13:06:13.936Z,44.07
2023-06-05T13:09:08.271Z,43.92
2023-06-05T13:12:05.131Z,43.75
2023-06-05T13:15:00.880Z,43.82
2023-06-05T13:17:54.819Z,43.72
2023-06-05T13:20:48.766Z,43.52
2023-06-05T13:23:43.187Z,43.42
2023-06-05T13:26:37.702Z,43.44
2023-06-05T13:29:31.823Z,44.10
2023-06-05T13:35:20.048Z,44.02
2023-06-05T13:38:14.411Z,44.18
2023-06-05T13:41:08.939Z,43.64
2023-06-05T13:44:03.446Z,43.37
2023-06-05T13:47:01.041Z,43.59
2023-06-05T13:49:56.598Z,43.38
2023-06-05T13:52:51.287Z,43.45
2023-06-05T13:55:45.421Z,43.78
2023-06-05T13:58:39.799Z,44.15
2023-06-05T14:01:34.082Z,44.42
2023-06-05T14:04:29.839Z,44.07
2023-06-05T14:07:25.881Z,43.66
2023-06-05T14:10:23.648Z,43.57
2023-06-05T14:13:17.687Z,43.78
2023-06-05T14:16:13.283Z,43.53
2023-06-05T14:19:07.875Z,43.57
2023-06-05T14:22:01.784Z,43.93
2023-06-05T14:24:55.862Z,43.78
2023-06-05T14:27:49.843Z,43.76
2023-06-05T14:30:43.691Z,44.17
2023-06-05T14:33:37.578Z,44.05
2023-06-05T14:36:32.087Z,44.02
2023-06-05T14:39:26.138Z,43.83
2023-06-05T14:42:20.624Z,44.10
2023-06-05T14:45:08.552Z,44.06
2023-06-05T14:48:03.102Z,44.44
2023-06-05T14:50:57.041Z,44.42
2023-06-05T14:53:51.134Z,44.52
2023-06-05T14:56:46.415Z,44.16
2023-06-05T14:59:40.570Z,44.18
2023-06-05T15:02:34.883Z,43.94
2023-06-05T15:05:29.092Z,43.97
2023-06-05T15:08:24.074Z,43.68
2023-06-05T15:11:18.278Z,43.90
2023-06-05T15:14:12.263Z,44.09
2023-06-05T15:17:06.440Z,44.23
2023-06-05T15:20:00.921Z,44.62
2023-06-05T15:25:55.654Z,44.15
2023-06-05T15:28:50.676Z,44.25
2023-06-05T15:31:46.436Z,44.09
2023-06-05T15:34:41.564Z,44.14
2023-06-05T15:37:35.432Z,43.92
2023-06-05T15:40:29.214Z,44.18
2023-06-05T15:43:23.270Z,44.35
2023-06-05T15:46:17.592Z,44.07
2023-06-05T15:49:12.003Z,44.33
2023-06-05T15:52:06.181Z,44.24
2023-06-05T15:55:01.615Z,44.07
2023-06-05T15:57:56.022Z,44.98
2023-06-05T16:00:50.264Z,44.61
2023-06-05T16:03:44.632Z,44.99
2023-06-05T16:06:38.714Z,44.40
2023-06-05T16:09:33.121Z,44.39
2023-06-05T16:12:27.189Z,44.78
2023-06-05T16:15:21.062Z,44.34
2023-06-05T16:18:14.927Z,44.27
2023-06-05T16:21:09.587Z,44.40
2023-06-05T16:24:15.202Z,44.34
2023-06-05T16:27:10.276Z,44.45
2023-06-05T16:30:05.934Z,44.85
2023-06-05T16:32:59.999Z,44.57
2023-06-05T16:35:54.598Z,44.96
2023-06-05T16:38:48.434Z,44.83
2023-06-05T16:41:42.392Z,44.90
2023-06-05T16:44:37.093Z,45.06
2023-06-05T16:47:31.278Z,45.16
2023-06-05T16:50:25.791Z,45.18
2023-06-05T16:53:20.224Z,45.14
2023-06-05T16:56:16.325Z,45.23
2023-06-05T16:59:17.746Z,45.24
2023-06-05T17:02:12.835Z,45.14
2023-06-05T17:05:08.257Z,45.16
2023-06-05T17:08:02.627Z,45.32
2023-06-05T17:10:56.602Z,45.37
2023-06-05T17:13:50.589Z,45.36
2023-06-05T17:16:45.695Z,45.38
2023-06-05T17:19:40.027Z,45.24
2023-06-05T17:22:34.409Z,45.17
2023-06-05T17:25:28.804Z,45.06
2023-06-05T17:28:23.093Z,45.09
2023-06-05T17:31:17.609Z,45.42
2023-06-05T17:34:11.753Z,45.31
2023-06-05T17:37:06.577Z,45.40
2023-06-05T17:40:00.524Z,45.39
2023-06-05T17:42:54.814Z,45.51
2023-06-05T17:45:49.139Z,45.64
2023-06-05T17:48:43.467Z,45.64
2023-06-05T17:51:38.064Z,45.69
2023-06-05T17:54:32.291Z,45.77
2023-06-05T17:57:26.476Z,46.01
2023-06-05T18:00:23.145Z,46.13
2023-06-05T18:03:20.857Z,45.97
2023-06-05T18:06:16.038Z,45.67
2023-06-05T18:09:10.522Z,45.72
2023-06-05T18:12:05.719Z,45.68
2023-06-05T18:15:00.169Z,45.64
2023-06-05T18:17:54.244Z,46.09
2023-06-05T18:20:48.619Z,46.13
2023-06-05T18:23:43.096Z,46.10
2023-06-05T18:26:37.366Z,46.21
2023-06-05T18:29:31.356Z,46.39
2023-06-05T18:32:26.976Z,46.59
2023-06-05T18:35:23.345Z,46.46
2023-06-05T18:38:18.259Z,46.60
2023-06-05T18:41:13.318Z,46.98
2023-06-05T18:44:08.009Z,46.72
2023-06-05T18:47:03.151Z,47.04
2023-06-05T18:49:57.532Z,46.71
2023-06-05T18:52:51.509Z,46.79
2023-06-05T18:55:46.088Z,46.67
2023-06-05T18:58:41.656Z,46.55
2023-06-05T19:01:35.765Z,46.47
2023-06-05T19:04:31.296Z,46.43
2023-06-05T19:07:25.842Z,46.51
2023-06-05T19:10:20.676Z,46.56
2023-06-05T19:13:14.949Z,46.64
2023-06-05T19:16:09.451Z,46.81
2023-06-05T19:19:04.199Z,46.76
2023-06-05T19:21:58.563Z,46.93
2023-06-05T19:24:53.284Z,47.09
2023-06-05T19:27:49.360Z,46.80
2023-06-05T19:30:43.700Z,46.85
2023-06-05T19:33:39.172Z,46.76
2023-06-05T19:36:19.706Z,46.73
2023-06-05T19:39:14.495Z,46.57
2023-06-05T19:42:10.613Z,47.09
2023-06-05T19:45:05.612Z,47.25
2023-06-05T19:48:00.706Z,47.30
2023-06-05T19:50:56.100Z,47.46
2023-06-05T19:53:50.297Z,46.99
2023-06-05T19:56:44.498Z,47.47
2023-06-05T19:59:38.638Z,47.49
2023-06-05T20:02:32.892Z,47.43
2023-06-05T20:05:27.768Z,47.20
2023-06-05T20:08:22.183Z,47.44
2023-06-05T20:11:16.474Z,47.76
2023-06-05T20:14:10.544Z,47.98
2023-06-05T20:17:05.238Z,47.60
2023-06-05T20:20:00.729Z,47.43
2023-06-05T20:22:56.837Z,47.86
2023-06-05T20:25:51.030Z,48.34
2023-06-05T20:28:46.500Z,48.22
2023-06-05T20:31:40.452Z,48.30
2023-06-05T20:34:34.441Z,48.39
2023-06-05T20:37:31.919Z,48.48
2023-06-05T20:40:28.221Z,48.20
2023-06-05T20:43:22.649Z,48.26
2023-06-05T20:46:21.549Z,48.07
2023-06-05T20:49:17.433Z,47.90
2023-06-05T20:52:12.417Z,47.96
2023-06-05T20:55:08.712Z,47.96
2023-06-05T20:58:04.490Z,47.72
2023-06-05T21:00:58.845Z,47.71
2023-06-05T21:03:52.928Z,47.70
2023-06-05T21:06:47.157Z,47.83
2023-06-05T21:09:41.933Z,47.80
2023-06-05T21:12:38.986Z,47.60
2023-06-05T21:15:33.086Z,47.68
2023-06-05T21:18:27.223Z,47.60
2023-06-05T21:21:21.322Z,47.48
2023-06-05T21:24:17.283Z,47.39
2023-06-05T21:27:13.078Z,47.66
2023-06-05T21:30:08.478Z,47.61
2023-06-05T21:33:02.517Z,47.41
2023-06-05T21:35:56.662Z,47.61
2023-06-05T21:38:51.444Z,47.51
2023-06-05T21:41:47.337Z,47.57
2023-06-05T21:44:41.304Z,47.60
2023-06-05T21:47:35.646Z,47.61
2023-06-05T21:50:29.904Z,47.55
2023-06-05T21:53:24.287Z,47.38
2023-06-05T21:56:19.082Z,47.67
2023-06-05T21:59:14.351Z,47.51
2023-06-05T22:02:10.199Z,47.44
2023-06-05T22:05:05.118Z,47.42
2023-06-05T22:08:03.225Z,47.59
2023-06-05T22:10:57.425Z,47.46
2023-06-05T22:13:51.749Z,47.34
2023-06-05T22:16:46.207Z,47.36
2023-06-05T22:19:43.425Z,47.44
2023-06-05T22:22:37.460Z,47.40
2023-06-05T22:25:43.532Z,47.45
2023-06-05T22:28:45.011Z,47.42
2023-06-05T22:31:39.421Z,47.42
2023-06-05T22:34:34.889Z,47.39
2023-06-05T22:37:34.230Z,47.05
2023-06-05T22:40:28.569Z,47.22
2023-06-05T22:43:22.961Z,47.10
2023-06-05T22:46:17.472Z,47.16
2023-06-05T22:49:11.972Z,47.15
2023-06-05T22:52:10.721Z,47.09
2023-06-05T22:55:06.038Z,47.01
2023-06-05T22:58:00.617Z,47.12
2023-06-05T23:00:55.965Z,47.07
2023-06-05T23:03:52.007Z,46.94
2023-06-05T23:06:46.464Z,46.96
2023-06-05T23:09:41.062Z,46.74
2023-06-05T23:12:35.245Z,46.84
2023-06-05T23:15:23.741Z,46.77
2023-06-05T23:18:18.214Z,46.74
2023-06-05T23:21:34.399Z,46.57
2023-06-05T23:24:28.905Z,46.42
2023-06-05T23:27:23.235Z,46.82
2023-06-05T23:30:25.371Z,46.56
2023-06-05T23:33:43.350Z,46.63
2023-06-05T23:36:44.483Z,46.59
2023-06-05T23:39:48.323Z,46.57
2023-06-05T23:42:47.864Z,46.44
2023-06-05T23:45:42.862Z,46.44
2023-06-05T23:48:37.466Z,46.41
2023-06-05T23:51:32.828Z,46.45
2023-06-05T23:54:27.115Z,46.48
2023-06-05T23:57:21.272Z,46.21
